sensor_id;sensor_type;location;lat;lon;timestamp;P1;durP1;ratioP1;P2;durP2;ratioP2
12892;SDS011;6514;48.606;9.222;2022-08-23T00:01:47;4.13;;;2.60;;
12892;SDS011;6514;48.606;9.222;2022-08-23T00:04:17;3.40;;;2.73;;
12892;SDS011;6514;48.606;9.222;2022-08-23T00:06:47;5.20;;;3.00;;
12892;SDS011;6514;48.606;9.222;2022-08-23T00:09:15;3.63;;;2.67;;
12892;SDS011;6514;48.606;9.222;2022-08-23T00:11:45;5.30;;;2.73;;
12892;SDS011;6514;48.606;9.222;2022-08-23T00:14:14;6.67;;;2.47;;
12892;SDS011;6514;48.606;9.222;2022-08-23T00:16:43;2.93;;;2.53;;
12892;SDS011;6514;48.606;9.222;2022-08-23T00:19:12;6.10;;;2.80;;
12892;SDS011;6514;48.606;9.222;2022-08-23T00:21:41;4.77;;;2.63;;
12892;SDS011;6514;48.606;9.222;2022-08-23T00:24:10;4.97;;;2.77;;
12892;SDS011;6514;48.606;9.222;2022-08-23T00:26:53;4.27;;;3.07;;
12892;SDS011;6514;48.606;9.222;2022-08-23T00:29:26;4.00;;;2.77;;
12892;SDS011;6514;48.606;9.222;2022-08-23T00:31:55;2.83;;;2.53;;
12892;SDS011;6514;48.606;9.222;2022-08-23T00:34:22;5.93;;;3.20;;
12892;SDS011;6514;48.606;9.222;2022-08-23T00:36:49;2.60;;;2.40;;
12892;SDS011;6514;48.606;9.222;2022-08-23T00:39:16;3.60;;;2.67;;
12892;SDS011;6514;48.606;9.222;2022-08-23T00:41:44;2.80;;;2.60;;
12892;SDS011;6514;48.606;9.222;2022-08-23T00:44:14;6.03;;;3.13;;
12892;SDS011;6514;48.606;9.222;2022-08-23T00:47:03;3.87;;;3.00;;
12892;SDS011;6514;48.606;9.222;2022-08-23T00:49:55;3.43;;;2.47;;
12892;SDS011;6514;48.606;9.222;2022-08-23T00:52:33;5.50;;;2.73;;
12892;SDS011;6514;48.606;9.222;2022-08-23T00:55:05;4.93;;;3.00;;
12892;SDS011;6514;48.606;9.222;2022-08-23T00:57:32;3.27;;;2.90;;
12892;SDS011;6514;48.606;9.222;2022-08-23T01:00:03;4.13;;;2.77;;
12892;SDS011;6514;48.606;9.222;2022-08-23T01:02:31;5.60;;;3.20;;
12892;SDS011;6514;48.606;9.222;2022-08-23T01:04:59;3.87;;;3.47;;
12892;SDS011;6514;48.606;9.222;2022-08-23T01:07:38;4.27;;;3.33;;
12892;SDS011;6514;48.606;9.222;2022-08-23T01:10:13;3.13;;;2.80;;
12892;SDS011;6514;48.606;9.222;2022-08-23T01:12:49;3.90;;;3.40;;
12892;SDS011;6514;48.606;9.222;2022-08-23T01:15:23;3.10;;;2.80;;
12892;SDS011;6514;48.606;9.222;2022-08-23T01:17:54;3.83;;;2.93;;
12892;SDS011;6514;48.606;9.222;2022-08-23T01:20:27;3.10;;;2.80;;
12892;SDS011;6514;48.606;9.222;2022-08-23T01:23:01;5.67;;;3.00;;
12892;SDS011;6514;48.606;9.222;2022-08-23T01:25:34;4.33;;;2.97;;
12892;SDS011;6514;48.606;9.222;2022-08-23T01:28:03;2.90;;;2.60;;
12892;SDS011;6514;48.606;9.222;2022-08-23T01:30:31;3.77;;;2.43;;
12892;SDS011;6514;48.606;9.222;2022-08-23T01:33:00;3.53;;;3.07;;
12892;SDS011;6514;48.606;9.222;2022-08-23T01:35:30;2.67;;;2.40;;
12892;SDS011;6514;48.606;9.222;2022-08-23T01:38:03;3.23;;;2.40;;
12892;SDS011;6514;48.606;9.222;2022-08-23T01:40:31;3.80;;;2.87;;
12892;SDS011;6514;48.606;9.222;2022-08-23T01:43:00;4.03;;;2.60;;
12892;SDS011;6514;48.606;9.222;2022-08-23T01:45:28;6.50;;;2.60;;
12892;SDS011;6514;48.606;9.222;2022-08-23T01:47:55;3.77;;;2.77;;
12892;SDS011;6514;48.606;9.222;2022-08-23T01:50:23;5.63;;;2.77;;
12892;SDS011;6514;48.606;9.222;2022-08-23T01:52:50;3.20;;;2.90;;
12892;SDS011;6514;48.606;9.222;2022-08-23T01:55:18;3.20;;;2.83;;
12892;SDS011;6514;48.606;9.222;2022-08-23T01:57:46;5.10;;;2.90;;
12892;SDS011;6514;48.606;9.222;2022-08-23T02:00:17;5.07;;;3.20;;
12892;SDS011;6514;48.606;9.222;2022-08-23T02:02:45;3.63;;;2.77;;
12892;SDS011;6514;48.606;9.222;2022-08-23T02:05:12;4.03;;;2.93;;
12892;SDS011;6514;48.606;9.222;2022-08-23T02:07:39;3.27;;;2.97;;
12892;SDS011;6514;48.606;9.222;2022-08-23T02:10:07;3.73;;;3.40;;
12892;SDS011;6514;48.606;9.222;2022-08-23T02:12:35;4.57;;;3.30;;
12892;SDS011;6514;48.606;9.222;2022-08-23T02:15:02;5.33;;;3.47;;
12892;SDS011;6514;48.606;9.222;2022-08-23T02:17:31;4.33;;;3.60;;
12892;SDS011;6514;48.606;9.222;2022-08-23T02:19:59;4.10;;;3.43;;
12892;SDS011;6514;48.606;9.222;2022-08-23T02:22:26;4.17;;;3.53;;
12892;SDS011;6514;48.606;9.222;2022-08-23T02:24:53;3.90;;;3.60;;
12892;SDS011;6514;48.606;9.222;2022-08-23T02:27:20;4.30;;;3.73;;
12892;SDS011;6514;48.606;9.222;2022-08-23T02:29:47;4.20;;;3.80;;
12892;SDS011;6514;48.606;9.222;2022-08-23T02:32:15;3.60;;;3.30;;
12892;SDS011;6514;48.606;9.222;2022-08-23T02:34:45;3.97;;;3.50;;
12892;SDS011;6514;48.606;9.222;2022-08-23T02:37:12;3.57;;;3.23;;
12892;SDS011;6514;48.606;9.222;2022-08-23T02:39:40;4.27;;;3.03;;
12892;SDS011;6514;48.606;9.222;2022-08-23T02:42:08;3.93;;;3.53;;
12892;SDS011;6514;48.606;9.222;2022-08-23T02:44:35;3.50;;;3.20;;
12892;SDS011;6514;48.606;9.222;2022-08-23T02:47:02;4.90;;;3.37;;
12892;SDS011;6514;48.606;9.222;2022-08-23T02:49:31;5.57;;;3.40;;
12892;SDS011;6514;48.606;9.222;2022-08-23T02:52:00;6.10;;;3.80;;
12892;SDS011;6514;48.606;9.222;2022-08-23T02:54:27;3.80;;;3.40;;
12892;SDS011;6514;48.606;9.222;2022-08-23T02:56:54;3.83;;;3.37;;
12892;SDS011;6514;48.606;9.222;2022-08-23T02:59:21;3.67;;;3.23;;
12892;SDS011;6514;48.606;9.222;2022-08-23T03:01:48;5.20;;;3.07;;
12892;SDS011;6514;48.606;9.222;2022-08-23T03:04:15;4.97;;;3.33;;
12892;SDS011;6514;48.606;9.222;2022-08-23T03:06:42;3.90;;;3.50;;
12892;SDS011;6514;48.606;9.222;2022-08-23T03:09:11;6.57;;;3.47;;
12892;SDS011;6514;48.606;9.222;2022-08-23T03:11:41;4.83;;;3.23;;
12892;SDS011;6514;48.606;9.222;2022-08-23T03:14:09;4.83;;;3.73;;
12892;SDS011;6514;48.606;9.222;2022-08-23T03:16:37;3.50;;;3.20;;
12892;SDS011;6514;48.606;9.222;2022-08-23T03:19:04;3.97;;;3.50;;
12892;SDS011;6514;48.606;9.222;2022-08-23T03:21:31;4.00;;;3.60;;
12892;SDS011;6514;48.606;9.222;2022-08-23T03:23:59;3.77;;;3.47;;
12892;SDS011;6514;48.606;9.222;2022-08-23T03:26:27;3.57;;;3.27;;
12892;SDS011;6514;48.606;9.222;2022-08-23T03:28:54;5.30;;;3.97;;
12892;SDS011;6514;48.606;9.222;2022-08-23T03:31:21;5.73;;;3.43;;
12892;SDS011;6514;48.606;9.222;2022-08-23T03:33:48;4.53;;;3.73;;
12892;SDS011;6514;48.606;9.222;2022-08-23T03:36:15;4.10;;;3.70;;
12892;SDS011;6514;48.606;9.222;2022-08-23T03:38:42;4.60;;;3.63;;
12892;SDS011;6514;48.606;9.222;2022-08-23T03:41:09;6.10;;;3.50;;
12892;SDS011;6514;48.606;9.222;2022-08-23T03:43:38;4.20;;;3.60;;
12892;SDS011;6514;48.606;9.222;2022-08-23T03:46:05;4.17;;;3.77;;
12892;SDS011;6514;48.606;9.222;2022-08-23T03:48:33;4.67;;;3.73;;
12892;SDS011;6514;48.606;9.222;2022-08-23T03:51:00;3.97;;;3.27;;
12892;SDS011;6514;48.606;9.222;2022-08-23T03:53:27;4.43;;;3.67;;
12892;SDS011;6514;48.606;9.222;2022-08-23T03:55:54;4.53;;;3.97;;
12892;SDS011;6514;48.606;9.222;2022-08-23T03:58:21;4.60;;;4.07;;
12892;SDS011;6514;48.606;9.222;2022-08-23T04:00:51;4.20;;;3.90;;
12892;SDS011;6514;48.606;9.222;2022-08-23T04:03:18;5.33;;;3.73;;
12892;SDS011;6514;48.606;9.222;2022-08-23T04:05:45;5.47;;;4.00;;
12892;SDS011;6514;48.606;9.222;2022-08-23T04:08:12;4.20;;;3.80;;
12892;SDS011;6514;48.606;9.222;2022-08-23T04:10:39;5.83;;;3.83;;
12892;SDS011;6514;48.606;9.222;2022-08-23T04:13:06;4.10;;;3.50;;
12892;SDS011;6514;48.606;9.222;2022-08-23T04:15:34;5.40;;;4.10;;
12892;SDS011;6514;48.606;9.222;2022-08-23T04:18:03;5.37;;;3.70;;
12892;SDS011;6514;48.606;9.222;2022-08-23T04:20:31;4.60;;;4.20;;
12892;SDS011;6514;48.606;9.222;2022-08-23T04:22:58;4.40;;;4.00;;
12892;SDS011;6514;48.606;9.222;2022-08-23T04:25:26;4.70;;;4.17;;
12892;SDS011;6514;48.606;9.222;2022-08-23T04:27:53;4.60;;;3.97;;
12892;SDS011;6514;48.606;9.222;2022-08-23T04:30:20;5.30;;;4.03;;
12892;SDS011;6514;48.606;9.222;2022-08-23T04:32:47;4.80;;;4.40;;
12892;SDS011;6514;48.606;9.222;2022-08-23T04:35:16;5.20;;;4.70;;
12892;SDS011;6514;48.606;9.222;2022-08-23T04:37:43;4.57;;;4.10;;
12892;SDS011;6514;48.606;9.222;2022-08-23T04:40:10;7.03;;;4.97;;
12892;SDS011;6514;48.606;9.222;2022-08-23T04:42:54;4.43;;;3.90;;
12892;SDS011;6514;48.606;9.222;2022-08-23T04:45:21;6.67;;;4.33;;
12892;SDS011;6514;48.606;9.222;2022-08-23T04:47:49;5.77;;;4.57;;
12892;SDS011;6514;48.606;9.222;2022-08-23T04:50:17;8.33;;;4.60;;
12892;SDS011;6514;48.606;9.222;2022-08-23T04:52:45;7.53;;;4.67;;
12892;SDS011;6514;48.606;9.222;2022-08-23T04:55:12;4.57;;;4.23;;
12892;SDS011;6514;48.606;9.222;2022-08-23T04:57:39;4.47;;;4.07;;
12892;SDS011;6514;48.606;9.222;2022-08-23T05:00:07;4.97;;;4.47;;
12892;SDS011;6514;48.606;9.222;2022-08-23T05:02:36;4.33;;;3.87;;
12892;SDS011;6514;48.606;9.222;2022-08-23T05:05:04;6.13;;;4.20;;
12892;SDS011;6514;48.606;9.222;2022-08-23T05:07:35;5.20;;;4.23;;
12892;SDS011;6514;48.606;9.222;2022-08-23T05:10:02;5.53;;;4.53;;
12892;SDS011;6514;48.606;9.222;2022-08-23T05:12:30;5.53;;;4.83;;
12892;SDS011;6514;48.606;9.222;2022-08-23T05:14:57;5.10;;;4.70;;
12892;SDS011;6514;48.606;9.222;2022-08-23T05:17:24;5.13;;;4.63;;
12892;SDS011;6514;48.606;9.222;2022-08-23T05:19:51;4.83;;;4.23;;
12892;SDS011;6514;48.606;9.222;2022-08-23T05:22:18;5.30;;;4.77;;
12892;SDS011;6514;48.606;9.222;2022-08-23T05:24:47;5.20;;;4.70;;
12892;SDS011;6514;48.606;9.222;2022-08-23T05:27:14;5.90;;;4.73;;
12892;SDS011;6514;48.606;9.222;2022-08-23T05:29:41;5.30;;;4.77;;
12892;SDS011;6514;48.606;9.222;2022-08-23T05:32:07;5.23;;;4.63;;
12892;SDS011;6514;48.606;9.222;2022-08-23T05:34:34;4.70;;;4.30;;
12892;SDS011;6514;48.606;9.222;2022-08-23T05:37:02;5.30;;;4.13;;
12892;SDS011;6514;48.606;9.222;2022-08-23T05:39:29;4.80;;;4.37;;
12892;SDS011;6514;48.606;9.222;2022-08-23T05:41:57;4.53;;;4.10;;
12892;SDS011;6514;48.606;9.222;2022-08-23T05:44:24;5.17;;;4.70;;
12892;SDS011;6514;48.606;9.222;2022-08-23T05:46:51;5.70;;;4.43;;
12892;SDS011;6514;48.606;9.222;2022-08-23T05:49:18;4.70;;;4.00;;
12892;SDS011;6514;48.606;9.222;2022-08-23T05:51:45;5.87;;;4.07;;
12892;SDS011;6514;48.606;9.222;2022-08-23T05:54:12;4.87;;;4.33;;
12892;SDS011;6514;48.606;9.222;2022-08-23T05:56:40;5.87;;;4.10;;
12892;SDS011;6514;48.606;9.222;2022-08-23T05:59:09;6.90;;;3.87;;
12892;SDS011;6514;48.606;9.222;2022-08-23T06:01:39;5.17;;;4.47;;
12892;SDS011;6514;48.606;9.222;2022-08-23T06:04:07;4.70;;;4.30;;
12892;SDS011;6514;48.606;9.222;2022-08-23T06:06:37;4.97;;;4.47;;
12892;SDS011;6514;48.606;9.222;2022-08-23T06:09:05;4.73;;;4.20;;
12892;SDS011;6514;48.606;9.222;2022-08-23T06:11:34;5.93;;;4.40;;
12892;SDS011;6514;48.606;9.222;2022-08-23T06:14:02;5.23;;;4.17;;
12892;SDS011;6514;48.606;9.222;2022-08-23T06:16:33;4.40;;;3.97;;
12892;SDS011;6514;48.606;9.222;2022-08-23T06:19:03;5.10;;;3.60;;
12892;SDS011;6514;48.606;9.222;2022-08-23T06:21:31;4.73;;;3.87;;
12892;SDS011;6514;48.606;9.222;2022-08-23T06:23:59;4.87;;;4.20;;
12892;SDS011;6514;48.606;9.222;2022-08-23T06:26:28;4.87;;;3.90;;
12892;SDS011;6514;48.606;9.222;2022-08-23T06:28:56;5.67;;;4.37;;
12892;SDS011;6514;48.606;9.222;2022-08-23T06:31:26;6.17;;;4.50;;
12892;SDS011;6514;48.606;9.222;2022-08-23T06:34:16;5.03;;;3.60;;
12892;SDS011;6514;48.606;9.222;2022-08-23T06:36:46;4.33;;;3.77;;
12892;SDS011;6514;48.606;9.222;2022-08-23T06:39:15;4.73;;;3.80;;
12892;SDS011;6514;48.606;9.222;2022-08-23T06:41:43;5.37;;;3.67;;
12892;SDS011;6514;48.606;9.222;2022-08-23T06:44:12;4.93;;;3.60;;
12892;SDS011;6514;48.606;9.222;2022-08-23T06:46:39;4.67;;;3.20;;
12892;SDS011;6514;48.606;9.222;2022-08-23T06:49:06;5.97;;;3.70;;
12892;SDS011;6514;48.606;9.222;2022-08-23T06:51:36;5.10;;;3.30;;
12892;SDS011;6514;48.606;9.222;2022-08-23T06:54:06;4.03;;;3.60;;
12892;SDS011;6514;48.606;9.222;2022-08-23T06:56:34;3.40;;;3.20;;
12892;SDS011;6514;48.606;9.222;2022-08-23T06:59:02;3.77;;;3.00;;
12892;SDS011;6514;48.606;9.222;2022-08-23T07:01:31;3.63;;;3.10;;
12892;SDS011;6514;48.606;9.222;2022-08-23T07:04:02;3.77;;;3.20;;
12892;SDS011;6514;48.606;9.222;2022-08-23T07:06:30;6.07;;;3.40;;
12892;SDS011;6514;48.606;9.222;2022-08-23T07:09:00;5.03;;;3.00;;
12892;SDS011;6514;48.606;9.222;2022-08-23T07:11:27;3.63;;;3.20;;
12892;SDS011;6514;48.606;9.222;2022-08-23T07:13:57;4.53;;;3.10;;
12892;SDS011;6514;48.606;9.222;2022-08-23T07:16:25;4.17;;;3.43;;
12892;SDS011;6514;48.606;9.222;2022-08-23T07:18:57;4.30;;;3.10;;
12892;SDS011;6514;48.606;9.222;2022-08-23T07:21:24;4.10;;;2.73;;
12892;SDS011;6514;48.606;9.222;2022-08-23T07:23:51;3.90;;;2.73;;
12892;SDS011;6514;48.606;9.222;2022-08-23T07:26:20;4.47;;;2.90;;
12892;SDS011;6514;48.606;9.222;2022-08-23T07:28:48;3.13;;;2.83;;
12892;SDS011;6514;48.606;9.222;2022-08-23T07:31:16;3.47;;;2.80;;
12892;SDS011;6514;48.606;9.222;2022-08-23T07:33:45;4.93;;;2.90;;
12892;SDS011;6514;48.606;9.222;2022-08-23T07:36:13;3.43;;;2.63;;
12892;SDS011;6514;48.606;9.222;2022-08-23T07:38:41;4.70;;;3.37;;
12892;SDS011;6514;48.606;9.222;2022-08-23T07:41:09;2.57;;;2.30;;
12892;SDS011;6514;48.606;9.222;2022-08-23T07:43:38;2.67;;;2.47;;
12892;SDS011;6514;48.606;9.222;2022-08-23T07:46:06;2.93;;;2.40;;
12892;SDS011;6514;48.606;9.222;2022-08-23T07:48:34;4.50;;;2.20;;
12892;SDS011;6514;48.606;9.222;2022-08-23T07:51:02;4.53;;;2.40;;
12892;SDS011;6514;48.606;9.222;2022-08-23T07:53:30;3.00;;;2.40;;
12892;SDS011;6514;48.606;9.222;2022-08-23T07:55:58;3.30;;;2.30;;
12892;SDS011;6514;48.606;9.222;2022-08-23T07:58:25;2.83;;;2.57;;
12892;SDS011;6514;48.606;9.222;2022-08-23T08:00:53;3.93;;;2.43;;
12892;SDS011;6514;48.606;9.222;2022-08-23T08:03:20;4.00;;;2.57;;
12892;SDS011;6514;48.606;9.222;2022-08-23T08:05:47;3.60;;;2.10;;
12892;SDS011;6514;48.606;9.222;2022-08-23T08:08:14;3.70;;;2.30;;
12892;SDS011;6514;48.606;9.222;2022-08-23T08:10:42;3.03;;;2.10;;
12892;SDS011;6514;48.606;9.222;2022-08-23T08:13:09;2.90;;;2.60;;
12892;SDS011;6514;48.606;9.222;2022-08-23T08:15:39;3.60;;;2.50;;
12892;SDS011;6514;48.606;9.222;2022-08-23T08:18:08;3.83;;;2.30;;
12892;SDS011;6514;48.606;9.222;2022-08-23T08:20:36;3.53;;;2.27;;
12892;SDS011;6514;48.606;9.222;2022-08-23T08:23:03;2.93;;;2.50;;
12892;SDS011;6514;48.606;9.222;2022-08-23T08:25:31;2.33;;;1.90;;
12892;SDS011;6514;48.606;9.222;2022-08-23T08:27:59;3.60;;;2.13;;
12892;SDS011;6514;48.606;9.222;2022-08-23T08:30:26;3.83;;;2.50;;
12892;SDS011;6514;48.606;9.222;2022-08-23T08:32:53;3.83;;;2.30;;
12892;SDS011;6514;48.606;9.222;2022-08-23T08:35:22;2.57;;;2.37;;
12892;SDS011;6514;48.606;9.222;2022-08-23T08:37:49;2.93;;;2.00;;
12892;SDS011;6514;48.606;9.222;2022-08-23T08:40:16;3.67;;;2.30;;
12892;SDS011;6514;48.606;9.222;2022-08-23T08:42:59;2.97;;;2.67;;
12892;SDS011;6514;48.606;9.222;2022-08-23T08:45:37;5.17;;;2.17;;
12892;SDS011;6514;48.606;9.222;2022-08-23T08:48:14;3.27;;;2.57;;
12892;SDS011;6514;48.606;9.222;2022-08-23T08:50:48;2.93;;;2.50;;
12892;SDS011;6514;48.606;9.222;2022-08-23T08:53:21;8.77;;;2.73;;
12892;SDS011;6514;48.606;9.222;2022-08-23T08:55:55;4.87;;;2.67;;
12892;SDS011;6514;48.606;9.222;2022-08-23T08:58:25;6.50;;;2.30;;
12892;SDS011;6514;48.606;9.222;2022-08-23T09:00:58;3.07;;;2.20;;
12892;SDS011;6514;48.606;9.222;2022-08-23T09:03:26;8.37;;;2.40;;
12892;SDS011;6514;48.606;9.222;2022-08-23T09:06:00;5.77;;;2.37;;
12892;SDS011;6514;48.606;9.222;2022-08-23T09:08:38;3.77;;;2.20;;
12892;SDS011;6514;48.606;9.222;2022-08-23T09:11:15;3.07;;;1.90;;
12892;SDS011;6514;48.606;9.222;2022-08-23T09:13:56;4.00;;;2.13;;
12892;SDS011;6514;48.606;9.222;2022-08-23T09:16:44;3.87;;;2.07;;
12892;SDS011;6514;48.606;9.222;2022-08-23T09:19:18;2.97;;;2.20;;
12892;SDS011;6514;48.606;9.222;2022-08-23T09:21:57;2.93;;;1.70;;
12892;SDS011;6514;48.606;9.222;2022-08-23T09:24:27;4.87;;;1.77;;
12892;SDS011;6514;48.606;9.222;2022-08-23T09:26:55;3.87;;;1.90;;
12892;SDS011;6514;48.606;9.222;2022-08-23T09:29:24;4.13;;;1.70;;
12892;SDS011;6514;48.606;9.222;2022-08-23T09:31:53;3.40;;;1.90;;
12892;SDS011;6514;48.606;9.222;2022-08-23T09:34:36;3.17;;;1.57;;
12892;SDS011;6514;48.606;9.222;2022-08-23T09:37:11;3.40;;;1.43;;
12892;SDS011;6514;48.606;9.222;2022-08-23T09:39:43;3.00;;;1.60;;
12892;SDS011;6514;48.606;9.222;2022-08-23T09:42:24;3.47;;;1.60;;
12892;SDS011;6514;48.606;9.222;2022-08-23T09:44:53;4.13;;;1.70;;
12892;SDS011;6514;48.606;9.222;2022-08-23T09:47:24;2.60;;;1.50;;
12892;SDS011;6514;48.606;9.222;2022-08-23T09:49:58;1.97;;;1.33;;
12892;SDS011;6514;48.606;9.222;2022-08-23T09:52:36;2.07;;;1.20;;
12892;SDS011;6514;48.606;9.222;2022-08-23T09:55:05;3.57;;;1.93;;
12892;SDS011;6514;48.606;9.222;2022-08-23T09:57:35;2.13;;;1.23;;
12892;SDS011;6514;48.606;9.222;2022-08-23T10:00:17;2.20;;;1.50;;
12892;SDS011;6514;48.606;9.222;2022-08-23T10:02:47;2.57;;;1.23;;
12892;SDS011;6514;48.606;9.222;2022-08-23T10:05:18;2.57;;;1.30;;
12892;SDS011;6514;48.606;9.222;2022-08-23T10:07:55;2.60;;;1.50;;
12892;SDS011;6514;48.606;9.222;2022-08-23T10:10:27;3.78;;;1.33;;
12892;SDS011;6514;48.606;9.222;2022-08-23T10:12:59;2.55;;;1.40;;
12892;SDS011;6514;48.606;9.222;2022-08-23T10:15:33;3.80;;;1.27;;
12892;SDS011;6514;48.606;9.222;2022-08-23T10:18:10;2.53;;;1.30;;
12892;SDS011;6514;48.606;9.222;2022-08-23T10:20:46;4.10;;;1.50;;
12892;SDS011;6514;48.606;9.222;2022-08-23T10:23:22;1.83;;;1.27;;
12892;SDS011;6514;48.606;9.222;2022-08-23T10:25:59;3.97;;;1.38;;
12892;SDS011;6514;48.606;9.222;2022-08-23T10:28:31;2.33;;;1.38;;
12892;SDS011;6514;48.606;9.222;2022-08-23T10:31:23;1.70;;;1.25;;
12892;SDS011;6514;48.606;9.222;2022-08-23T10:34:02;4.35;;;1.50;;
12892;SDS011;6514;48.606;9.222;2022-08-23T10:36:45;5.45;;;1.42;;
12892;SDS011;6514;48.606;9.222;2022-08-23T10:39:23;2.20;;;1.30;;
12892;SDS011;6514;48.606;9.222;2022-08-23T10:41:55;4.90;;;1.40;;
12892;SDS011;6514;48.606;9.222;2022-08-23T10:44:31;3.47;;;1.50;;
12892;SDS011;6514;48.606;9.222;2022-08-23T10:47:12;2.08;;;1.10;;
12892;SDS011;6514;48.606;9.222;2022-08-23T10:49:50;3.65;;;1.60;;
12892;SDS011;6514;48.606;9.222;2022-08-23T10:52:20;4.87;;;1.30;;
12892;SDS011;6514;48.606;9.222;2022-08-23T10:54:51;3.57;;;1.50;;
12892;SDS011;6514;48.606;9.222;2022-08-23T10:57:40;3.13;;;1.47;;
12892;SDS011;6514;48.606;9.222;2022-08-23T11:00:20;1.90;;;1.30;;
12892;SDS011;6514;48.606;9.222;2022-08-23T11:02:52;2.63;;;1.30;;
12892;SDS011;6514;48.606;9.222;2022-08-23T11:05:25;3.33;;;1.27;;
12892;SDS011;6514;48.606;9.222;2022-08-23T11:07:55;1.77;;;1.37;;
12892;SDS011;6514;48.606;9.222;2022-08-23T11:10:29;1.63;;;1.17;;
12892;SDS011;6514;48.606;9.222;2022-08-23T11:12:59;2.77;;;1.13;;
12892;SDS011;6514;48.606;9.222;2022-08-23T11:15:36;5.23;;;1.60;;
12892;SDS011;6514;48.606;9.222;2022-08-23T11:18:08;1.42;;;1.17;;
12892;SDS011;6514;48.606;9.222;2022-08-23T11:20:59;1.85;;;1.30;;
12892;SDS011;6514;48.606;9.222;2022-08-23T11:29:29;3.70;;;1.20;;
12892;SDS011;6514;48.606;9.222;2022-08-23T11:32:18;2.87;;;1.30;;
12892;SDS011;6514;48.606;9.222;2022-08-23T11:35:06;1.90;;;1.37;;
12892;SDS011;6514;48.606;9.222;2022-08-23T11:37:53;5.00;;;1.70;;
12892;SDS011;6514;48.606;9.222;2022-08-23T11:40:36;4.37;;;1.43;;
12892;SDS011;6514;48.606;9.222;2022-08-23T11:43:22;2.22;;;1.38;;
12892;SDS011;6514;48.606;9.222;2022-08-23T11:48:42;2.20;;;1.20;;
12892;SDS011;6514;48.606;9.222;2022-08-23T11:51:17;2.90;;;1.30;;
12892;SDS011;6514;48.606;9.222;2022-08-23T11:54:18;2.87;;;1.30;;
12892;SDS011;6514;48.606;9.222;2022-08-23T11:56:58;1.93;;;1.10;;
12892;SDS011;6514;48.606;9.222;2022-08-23T11:59:40;2.23;;;1.40;;
12892;SDS011;6514;48.606;9.222;2022-08-23T12:05:17;3.83;;;1.30;;
12892;SDS011;6514;48.606;9.222;2022-08-23T12:11:03;3.00;;;1.23;;
12892;SDS011;6514;48.606;9.222;2022-08-23T12:13:46;2.27;;;1.20;;
12892;SDS011;6514;48.606;9.222;2022-08-23T12:16:29;1.47;;;1.20;;
12892;SDS011;6514;48.606;9.222;2022-08-23T12:19:05;3.57;;;1.50;;
12892;SDS011;6514;48.606;9.222;2022-08-23T12:21:43;3.63;;;1.17;;
12892;SDS011;6514;48.606;9.222;2022-08-23T12:24:15;2.30;;;1.50;;
12892;SDS011;6514;48.606;9.222;2022-08-23T12:26:46;3.93;;;1.40;;
12892;SDS011;6514;48.606;9.222;2022-08-23T12:29:24;5.37;;;1.47;;
12892;SDS011;6514;48.606;9.222;2022-08-23T12:32:01;2.07;;;1.33;;
12892;SDS011;6514;48.606;9.222;2022-08-23T12:34:38;1.83;;;1.40;;
12892;SDS011;6514;48.606;9.222;2022-08-23T12:37:29;2.77;;;1.20;;
12892;SDS011;6514;48.606;9.222;2022-08-23T12:40:03;3.37;;;1.20;;
12892;SDS011;6514;48.606;9.222;2022-08-23T12:42:34;2.87;;;1.30;;
12892;SDS011;6514;48.606;9.222;2022-08-23T12:45:06;1.67;;;1.13;;
12892;SDS011;6514;48.606;9.222;2022-08-23T12:47:37;1.77;;;1.20;;
12892;SDS011;6514;48.606;9.222;2022-08-23T12:50:25;3.03;;;1.50;;
12892;SDS011;6514;48.606;9.222;2022-08-23T12:52:55;3.40;;;1.53;;
12892;SDS011;6514;48.606;9.222;2022-08-23T12:55:27;2.20;;;1.10;;
12892;SDS011;6514;48.606;9.222;2022-08-23T12:57:56;1.53;;;1.27;;
12892;SDS011;6514;48.606;9.222;2022-08-23T13:00:24;1.97;;;1.20;;
12892;SDS011;6514;48.606;9.222;2022-08-23T13:02:56;3.27;;;1.30;;
12892;SDS011;6514;48.606;9.222;2022-08-23T13:05:31;2.70;;;1.30;;
12892;SDS011;6514;48.606;9.222;2022-08-23T13:08:03;2.33;;;1.20;;
12892;SDS011;6514;48.606;9.222;2022-08-23T13:10:34;4.73;;;1.63;;
12892;SDS011;6514;48.606;9.222;2022-08-23T13:13:02;5.57;;;1.20;;
12892;SDS011;6514;48.606;9.222;2022-08-23T13:15:39;3.42;;;1.40;;
12892;SDS011;6514;48.606;9.222;2022-08-23T13:18:09;4.00;;;1.57;;
12892;SDS011;6514;48.606;9.222;2022-08-23T13:20:48;4.53;;;1.43;;
12892;SDS011;6514;48.606;9.222;2022-08-23T13:23:40;3.03;;;1.50;;
12892;SDS011;6514;48.606;9.222;2022-08-23T13:26:22;3.10;;;1.60;;
12892;SDS011;6514;48.606;9.222;2022-08-23T13:29:08;2.37;;;1.10;;
12892;SDS011;6514;48.606;9.222;2022-08-23T13:31:50;2.93;;;1.40;;
12892;SDS011;6514;48.606;9.222;2022-08-23T13:34:33;1.70;;;1.13;;
12892;SDS011;6514;48.606;9.222;2022-08-23T13:37:05;2.83;;;1.40;;
12892;SDS011;6514;48.606;9.222;2022-08-23T13:39:43;2.85;;;1.20;;
12892;SDS011;6514;48.606;9.222;2022-08-23T13:42:13;2.65;;;1.80;;
12892;SDS011;6514;48.606;9.222;2022-08-23T13:44:40;3.27;;;1.47;;
12892;SDS011;6514;48.606;9.222;2022-08-23T13:47:10;2.30;;;1.52;;
12892;SDS011;6514;48.606;9.222;2022-08-23T13:49:48;3.72;;;1.40;;
12892;SDS011;6514;48.606;9.222;2022-08-23T13:52:17;2.35;;;1.50;;
12892;SDS011;6514;48.606;9.222;2022-08-23T13:54:44;3.30;;;1.40;;
12892;SDS011;6514;48.606;9.222;2022-08-23T13:57:12;3.78;;;1.38;;
12892;SDS011;6514;48.606;9.222;2022-08-23T13:59:45;3.25;;;1.40;;
12892;SDS011;6514;48.606;9.222;2022-08-23T14:02:14;2.67;;;1.52;;
12892;SDS011;6514;48.606;9.222;2022-08-23T14:04:44;4.00;;;1.73;;
12892;SDS011;6514;48.606;9.222;2022-08-23T14:07:12;3.90;;;1.73;;
12892;SDS011;6514;48.606;9.222;2022-08-23T14:09:41;2.83;;;1.63;;
12892;SDS011;6514;48.606;9.222;2022-08-23T14:12:10;3.27;;;1.53;;
12892;SDS011;6514;48.606;9.222;2022-08-23T14:14:39;3.27;;;1.50;;
12892;SDS011;6514;48.606;9.222;2022-08-23T14:17:07;1.90;;;1.60;;
12892;SDS011;6514;48.606;9.222;2022-08-23T14:19:36;2.23;;;1.30;;
12892;SDS011;6514;48.606;9.222;2022-08-23T14:22:03;2.43;;;1.43;;
12892;SDS011;6514;48.606;9.222;2022-08-23T14:24:30;2.53;;;1.67;;
12892;SDS011;6514;48.606;9.222;2022-08-23T14:26:59;2.20;;;1.33;;
12892;SDS011;6514;48.606;9.222;2022-08-23T14:29:26;1.80;;;1.37;;
12892;SDS011;6514;48.606;9.222;2022-08-23T14:31:53;3.97;;;1.43;;
12892;SDS011;6514;48.606;9.222;2022-08-23T14:34:21;2.37;;;1.50;;
12892;SDS011;6514;48.606;9.222;2022-08-23T14:36:48;3.03;;;1.43;;
12892;SDS011;6514;48.606;9.222;2022-08-23T14:39:17;3.77;;;1.43;;
12892;SDS011;6514;48.606;9.222;2022-08-23T14:41:45;2.27;;;1.37;;
12892;SDS011;6514;48.606;9.222;2022-08-23T14:44:13;2.35;;;1.52;;
12892;SDS011;6514;48.606;9.222;2022-08-23T14:46:41;2.57;;;1.40;;
12892;SDS011;6514;48.606;9.222;2022-08-23T14:49:09;2.07;;;1.47;;
12892;SDS011;6514;48.606;9.222;2022-08-23T14:51:38;1.90;;;1.33;;
12892;SDS011;6514;48.606;9.222;2022-08-23T14:54:07;3.80;;;1.60;;
12892;SDS011;6514;48.606;9.222;2022-08-23T14:56:39;2.70;;;1.77;;
12892;SDS011;6514;48.606;9.222;2022-08-23T14:59:06;3.27;;;1.60;;
12892;SDS011;6514;48.606;9.222;2022-08-23T15:01:35;1.83;;;1.20;;
12892;SDS011;6514;48.606;9.222;2022-08-23T15:04:02;4.17;;;1.50;;
12892;SDS011;6514;48.606;9.222;2022-08-23T15:06:29;1.97;;;1.20;;
12892;SDS011;6514;48.606;9.222;2022-08-23T15:08:56;3.57;;;1.80;;
12892;SDS011;6514;48.606;9.222;2022-08-23T15:11:23;2.20;;;1.50;;
12892;SDS011;6514;48.606;9.222;2022-08-23T15:13:50;2.57;;;1.50;;
12892;SDS011;6514;48.606;9.222;2022-08-23T15:16:18;4.23;;;1.47;;
12892;SDS011;6514;48.606;9.222;2022-08-23T15:18:49;3.23;;;1.60;;
12892;SDS011;6514;48.606;9.222;2022-08-23T15:21:17;3.50;;;1.60;;
12892;SDS011;6514;48.606;9.222;2022-08-23T15:23:45;1.97;;;1.27;;
12892;SDS011;6514;48.606;9.222;2022-08-23T15:26:12;2.70;;;1.40;;
12892;SDS011;6514;48.606;9.222;2022-08-23T15:28:42;2.50;;;1.50;;
12892;SDS011;6514;48.606;9.222;2022-08-23T15:31:09;4.77;;;1.80;;
12892;SDS011;6514;48.606;9.222;2022-08-23T15:33:37;2.53;;;1.80;;
12892;SDS011;6514;48.606;9.222;2022-08-23T15:36:06;3.33;;;1.57;;
12892;SDS011;6514;48.606;9.222;2022-08-23T15:38:35;3.33;;;1.60;;